Time;durP1;ratioP1;P1;durP2;ratioP2;P2;SDS_P1;SDS_P2;PMS_P1;PMS_P2;Temp;Humidity;BMP_temperature;BMP_pressure;BME280_temperature;BME280_humidity;BME280_pressure;Samples;Min_cycle;Max_cycle;Signal;HPM_P1;HPM_P2
2022/04/02 00:00:44;;;;;;;8.23;5.18;;;2.70;99.90;;;;;;4980208;28;20203;-49
2022/04/02 00:03:11;;;;;;;5.60;3.67;;;2.80;99.90;;;;;;4980538;28;20449;-49
2022/04/02 00:05:38;;;;;;;10.80;4.97;;;2.80;99.90;;;;;;4980167;28;20213;-49
2022/04/02 00:08:06;;;;;;;11.52;5.00;;;2.80;99.90;;;;;;4980055;28;20493;-52
2022/04/02 00:10:33;;;;;;;8.45;5.65;;;2.70;99.90;;;;;;4979937;28;20219;-50
2022/04/02 00:13:05;;;;;;;7.28;4.03;;;2.70;99.90;;;;;;4980313;28;20401;-51
2022/04/02 00:15:32;;;;;;;5.50;4.72;;;2.70;99.90;;;;;;4979929;28;20266;-48
2022/04/02 00:18:00;;;;;;;7.85;4.35;;;2.70;99.90;;;;;;4980321;28;20226;-50
2022/04/02 00:20:27;;;;;;;7.43;4.35;;;2.60;99.90;;;;;;4978147;28;20203;-51
2022/04/02 00:25:44;;;;;;;5.05;4.07;;;2.60;99.90;;;;;;4981962;28;20522;-51
2022/04/02 00:28:12;;;;;;;6.78;4.50;;;2.60;99.90;;;;;;4984586;28;20234;-49
2022/04/02 00:30:40;;;;;;;7.25;4.18;;;2.60;99.90;;;;;;4985285;28;20553;-48
2022/04/02 00:33:08;;;;;;;8.77;4.60;;;2.50;99.90;;;;;;4985174;28;20203;-51
2022/04/02 00:35:35;;;;;;;6.40;4.50;;;2.50;99.90;;;;;;4986994;28;20217;-52
2022/04/02 00:38:04;;;;;;;8.10;4.93;;;2.50;99.90;;;;;;4987218;28;20456;-51
2022/04/02 00:40:42;;;;;;;5.63;3.75;;;2.40;99.90;;;;;;4981372;28;20199;-52
2022/04/02 00:43:44;;;;;;;8.93;4.70;;;2.50;99.90;;;;;;4985943;28;20284;-49
2022/04/02 00:46:12;;;;;;;5.45;2.80;;;2.40;99.90;;;;;;4985405;28;20248;-51
2022/04/02 00:48:40;;;;;;;5.32;4.82;;;2.40;99.90;;;;;;4984836;28;20231;-49
2022/04/02 00:51:12;;;;;;;5.82;3.00;;;2.60;99.90;;;;;;4983273;28;20242;-49
2022/04/02 00:53:44;;;;;;;10.18;3.45;;;2.50;99.90;;;;;;4983458;28;20204;-49
2022/04/02 00:56:14;;;;;;;4.32;3.67;;;2.50;99.90;;;;;;4982995;28;20207;-48
2022/04/02 00:58:41;;;;;;;5.95;4.25;;;2.50;99.90;;;;;;4983226;28;20198;-49
2022/04/02 01:01:11;;;;;;;4.93;3.40;;;2.40;99.90;;;;;;4983730;28;20513;-48
2022/04/02 01:03:43;;;;;;;6.07;3.22;;;2.50;99.90;;;;;;4981135;28;20211;-50
2022/04/02 01:06:33;;;;;;;3.40;3.05;;;2.50;99.90;;;;;;4981185;28;20237;-48
2022/04/02 01:09:02;;;;;;;6.72;4.20;;;2.40;99.90;;;;;;4983290;28;20204;-50
2022/04/02 01:11:42;;;;;;;7.30;3.58;;;2.40;99.90;;;;;;4983420;28;20203;-52
2022/04/02 01:14:11;;;;;;;4.45;3.65;;;2.40;99.90;;;;;;4981099;28;20222;-49
2022/04/02 01:16:39;;;;;;;3.40;2.70;;;2.30;99.90;;;;;;4983166;28;20313;-51
2022/04/02 01:19:07;;;;;;;4.03;3.03;;;2.30;99.90;;;;;;4983173;28;20517;-49
2022/04/02 01:21:36;;;;;;;5.10;3.30;;;2.30;99.90;;;;;;4982941;28;20261;-49
2022/04/02 01:24:04;;;;;;;8.35;3.50;;;2.40;99.90;;;;;;4983406;28;20199;-48
2022/04/02 01:26:33;;;;;;;4.70;3.47;;;2.30;99.90;;;;;;4983120;28;20549;-48
2022/04/02 01:29:01;;;;;;;6.45;3.72;;;2.30;99.90;;;;;;4983103;28;20365;-47
2022/04/02 01:31:29;;;;;;;3.65;2.97;;;2.30;99.90;;;;;;4983082;28;20338;-50
2022/04/02 01:33:57;;;;;;;4.43;3.47;;;2.30;99.90;;;;;;4979477;28;20458;-48
2022/04/02 01:36:27;;;;;;;8.40;3.80;;;2.30;99.90;;;;;;4982737;28;20202;-50
2022/04/02 01:39:02;;;;;;;4.15;2.72;;;2.30;99.90;;;;;;4983118;28;20230;-47
2022/04/02 01:41:29;;;;;;;7.38;4.35;;;2.30;99.90;;;;;;4983092;28;20210;-46
2022/04/02 01:43:56;;;;;;;3.92;3.45;;;2.20;99.90;;;;;;4983480;28;20297;-48
2022/04/02 01:46:24;;;;;;;3.65;2.45;;;2.20;99.90;;;;;;4980327;28;20273;-50
2022/04/02 01:48:52;;;;;;;2.75;2.50;;;2.20;99.90;;;;;;4982526;28;20206;-51
2022/04/02 01:51:19;;;;;;;4.82;3.70;;;2.30;99.90;;;;;;4982462;28;20226;-48
2022/04/02 01:53:46;;;;;;;6.50;3.22;;;2.30;99.90;;;;;;4982744;28;20199;-49
2022/04/02 01:56:17;;;;;;;4.20;3.80;;;2.30;99.90;;;;;;4982512;28;20433;-49
2022/04/02 01:58:44;;;;;;;4.53;4.00;;;2.30;99.90;;;;;;4982515;28;20205;-52
2022/04/02 02:01:12;;;;;;;6.80;3.92;;;2.20;99.90;;;;;;4982583;28;20265;-47
2022/04/02 02:03:39;;;;;;;7.78;3.50;;;2.10;99.90;;;;;;4979822;28;20409;-49
2022/04/02 02:06:07;;;;;;;9.40;3.78;;;2.00;99.90;;;;;;4985797;28;20584;-53
2022/04/02 02:08:34;;;;;;;4.10;3.78;;;1.90;99.90;;;;;;4984920;28;20548;-50
2022/04/02 02:11:07;;;;;;;4.70;3.38;;;1.80;99.90;;;;;;4983013;28;20230;-52
2022/04/02 02:13:37;;;;;;;4.13;3.72;;;1.70;99.90;;;;;;4981994;28;20289;-50
2022/04/02 02:16:05;;;;;;;4.50;3.63;;;1.60;99.90;;;;;;4979572;28;20289;-51
2022/04/02 02:18:33;;;;;;;10.82;4.60;;;1.50;99.90;;;;;;4981533;28;20296;-50
2022/04/02 02:21:00;;;;;;;6.60;4.25;;;1.50;99.90;;;;;;4979568;28;20485;-49
2022/04/02 02:23:28;;;;;;;5.30;4.30;;;1.40;99.90;;;;;;4981845;28;20322;-47
2022/04/02 02:25:56;;;;;;;4.32;3.47;;;1.30;99.90;;;;;;4979978;28;20378;-51
2022/04/02 02:28:23;;;;;;;4.10;3.75;;;1.30;99.90;;;;;;4984055;28;20210;-50
2022/04/02 02:30:50;;;;;;;3.85;3.55;;;1.30;99.90;;;;;;4983382;28;20218;-48
2022/04/02 02:36:03;;;;;;;4.70;3.20;;;1.20;99.90;;;;;;4983259;28;20202;-49
2022/04/02 02:38:31;;;;;;;6.75;3.60;;;1.20;99.90;;;;;;4979885;28;20265;-48
2022/04/02 02:40:58;;;;;;;4.32;3.92;;;1.20;99.90;;;;;;4980867;28;20214;-49
2022/04/02 02:43:29;;;;;;;9.32;4.93;;;1.10;99.90;;;;;;4981297;28;20202;-47
2022/04/02 02:45:57;;;;;;;6.28;4.40;;;1.20;99.90;;;;;;4981137;28;20206;-47
2022/04/02 02:48:24;;;;;;;4.40;4.00;;;1.20;99.90;;;;;;4979255;28;20222;-49
2022/04/02 02:50:51;;;;;;;5.22;4.28;;;1.10;99.90;;;;;;4979266;28;20453;-52
2022/04/02 02:53:19;;;;;;;9.93;4.50;;;1.10;99.90;;;;;;4980878;28;20203;-49
2022/04/02 02:55:50;;;;;;;4.47;3.92;;;1.00;99.90;;;;;;4981293;28;20245;-49
2022/04/02 02:58:17;;;;;;;6.68;3.17;;;1.10;99.90;;;;;;4980727;28;20579;-51
2022/04/02 03:00:46;;;;;;;5.85;3.78;;;1.10;99.90;;;;;;4981440;28;20398;-50
2022/04/02 03:03:13;;;;;;;5.93;3.97;;;1.10;99.90;;;;;;4981096;28;20202;-51
2022/04/02 03:05:41;;;;;;;5.53;3.58;;;1.00;99.90;;;;;;4981571;28;20234;-50
2022/04/02 03:08:11;;;;;;;6.20;4.38;;;1.00;99.90;;;;;;4989328;28;20230;-54
2022/04/02 03:10:41;;;;;;;6.18;4.07;;;1.00;99.90;;;;;;4989824;28;20226;-54
2022/04/02 03:13:09;;;;;;;4.80;3.85;;;0.90;99.90;;;;;;4988520;28;20199;-52
2022/04/02 03:15:37;;;;;;;7.00;4.22;;;1.00;99.90;;;;;;4988682;28;20216;-52
2022/04/02 03:18:06;;;;;;;5.68;4.07;;;0.90;99.90;;;;;;4988130;28;20226;-53
2022/04/02 03:20:35;;;;;;;5.45;4.65;;;0.90;99.90;;;;;;4988586;28;20559;-48
2022/04/02 03:23:04;;;;;;;7.10;3.80;;;0.90;99.90;;;;;;4986281;28;20396;-49
2022/04/02 03:25:32;;;;;;;5.07;4.30;;;0.90;99.90;;;;;;4980851;28;20202;-51
2022/04/02 03:27:59;;;;;;;6.47;4.50;;;0.80;99.90;;;;;;4980369;28;20289;-51
2022/04/02 03:30:28;;;;;;;4.93;4.00;;;0.80;99.90;;;;;;4995302;28;20402;-48
2022/04/02 03:32:58;;;;;;;5.70;4.05;;;0.80;99.90;;;;;;4980948;28;20438;-50
2022/04/02 03:35:27;;;;;;;5.75;4.80;;;0.80;99.90;;;;;;4978397;28;20206;-50
2022/04/02 03:37:55;;;;;;;4.82;4.35;;;0.80;99.90;;;;;;4980658;28;20265;-48
2022/04/02 03:40:24;;;;;;;7.15;5.15;;;0.80;99.90;;;;;;4980473;28;20457;-48
2022/04/02 03:42:52;;;;;;;8.02;4.75;;;0.80;99.90;;;;;;4980405;28;20433;-51
2022/04/02 03:45:21;;;;;;;8.77;4.88;;;0.80;99.90;;;;;;4980964;28;20202;-47
2022/04/02 03:47:49;;;;;;;5.50;4.15;;;0.80;99.90;;;;;;4980876;28;20233;-48
2022/04/02 03:50:16;;;;;;;6.32;4.70;;;0.80;99.90;;;;;;4980087;28;20230;-50
2022/04/02 03:52:44;;;;;;;6.53;4.45;;;0.80;99.90;;;;;;4978218;28;20203;-50
2022/04/02 03:55:12;;;;;;;5.13;4.07;;;0.80;99.90;;;;;;4981781;28;20217;-50
2022/04/02 03:57:39;;;;;;;6.63;4.65;;;0.70;99.90;;;;;;4982684;28;20261;-47
2022/04/02 04:00:10;;;;;;;8.02;5.60;;;0.60;99.90;;;;;;4985318;28;20205;-49
2022/04/02 04:02:40;;;;;;;7.78;4.88;;;0.50;99.90;;;;;;4982860;28;20274;-50
2022/04/02 04:05:08;;;;;;;11.43;6.40;;;0.40;99.90;;;;;;4983327;28;20210;-49
2022/04/02 04:07:36;;;;;;;10.27;6.30;;;0.40;99.90;;;;;;4983900;28;20237;-49
2022/04/02 04:10:05;;;;;;;5.60;4.85;;;0.30;99.90;;;;;;4982699;28;20257;-46
2022/04/02 04:12:34;;;;;;;8.23;5.90;;;0.30;99.90;;;;;;4983812;28;20218;-48
2022/04/02 04:15:02;;;;;;;8.07;6.07;;;0.30;99.90;;;;;;4984531;28;20202;-49
2022/04/02 04:17:30;;;;;;;6.53;5.70;;;0.30;99.90;;;;;;4984184;28;20224;-49
2022/04/02 04:19:57;;;;;;;7.88;6.40;;;0.20;99.90;;;;;;4984945;28;20419;-47
2022/04/02 04:22:25;;;;;;;6.82;5.88;;;0.20;99.90;;;;;;4980188;28;20198;-49
2022/04/02 04:24:52;;;;;;;9.90;5.22;;;0.10;99.90;;;;;;4985359;28;20205;-48
2022/04/02 04:27:20;;;;;;;11.52;6.47;;;0.10;99.90;;;;;;4985188;28;20232;-52
2022/04/02 04:29:49;;;;;;;8.05;5.35;;;0.00;99.90;;;;;;4984148;28;20202;-51
2022/04/02 04:32:16;;;;;;;9.05;6.53;;;0.00;99.90;;;;;;4983760;28;20627;-48
2022/04/02 04:34:54;;;;;;;8.90;5.30;;;0.00;99.90;;;;;;4983827;28;20201;-54
2022/04/02 04:37:22;;;;;;;11.30;5.53;;;0.00;99.90;;;;;;4983998;28;20222;-50
2022/04/02 04:39:53;;;;;;;7.68;5.35;;;0.00;99.90;;;;;;4983827;28;20513;-48
2022/04/02 04:42:21;;;;;;;7.70;5.65;;;0.00;99.90;;;;;;4983600;28;20207;-50
2022/04/02 04:44:48;;;;;;;9.27;6.05;;;0.00;99.90;;;;;;4983594;28;20206;-49
2022/04/02 04:47:16;;;;;;;8.98;6.60;;;-0.10;99.90;;;;;;4981454;28;20587;-49
2022/04/02 04:49:43;;;;;;;10.10;7.80;;;0.00;99.90;;;;;;4982466;28;20227;-48
2022/04/02 04:52:10;;;;;;;8.85;6.50;;;-0.10;99.90;;;;;;4997033;28;20576;-48
2022/04/02 04:54:37;;;;;;;5.68;4.60;;;0.00;99.90;;;;;;4980653;28;20272;-48
2022/04/02 04:57:05;;;;;;;5.65;5.15;;;0.00;99.90;;;;;;4980682;28;20256;-50
2022/04/02 04:59:33;;;;;;;9.45;5.82;;;0.10;99.90;;;;;;4983044;28;20210;-48
2022/04/02 05:02:04;;;;;;;7.63;5.63;;;0.20;99.90;;;;;;4982785;28;20214;-50
2022/04/02 05:04:31;;;;;;;7.93;4.90;;;0.20;99.90;;;;;;4983909;28;20210;-48
2022/04/02 05:06:59;;;;;;;9.30;5.45;;;0.20;99.90;;;;;;4984303;28;20460;-48
2022/04/02 05:09:26;;;;;;;7.38;5.25;;;0.20;99.90;;;;;;4984295;28;20254;-47
2022/04/02 05:12:02;;;;;;;13.88;6.07;;;0.20;99.90;;;;;;4983872;28;20217;-49
2022/04/02 05:14:29;;;;;;;10.13;6.40;;;0.20;99.90;;;;;;4983105;28;20265;-46
2022/04/02 05:16:57;;;;;;;7.05;5.40;;;0.10;99.90;;;;;;4984245;28;20288;-52
2022/04/02 05:19:24;;;;;;;7.53;6.20;;;0.10;99.90;;;;;;4989025;28;20202;-50
2022/04/02 05:21:52;;;;;;;7.35;5.65;;;0.10;99.90;;;;;;4985987;28;20202;-54
2022/04/02 05:24:19;;;;;;;6.82;5.65;;;0.10;99.90;;;;;;4983315;28;20202;-47
2022/04/02 05:26:49;;;;;;;6.75;5.68;;;0.10;99.90;;;;;;4982730;28;20225;-50
2022/04/02 05:29:17;;;;;;;8.18;5.47;;;0.20;99.90;;;;;;4983162;28;20225;-48
2022/04/02 05:31:46;;;;;;;6.00;5.07;;;0.20;99.90;;;;;;4989828;28;20225;-53
2022/04/02 05:34:15;;;;;;;8.85;5.57;;;0.20;99.90;;;;;;4989629;28;20228;-50
2022/04/02 05:36:43;;;;;;;6.18;4.85;;;0.10;99.90;;;;;;4985364;28;20286;-49
2022/04/02 05:39:12;;;;;;;10.05;6.63;;;0.20;99.90;;;;;;4983436;28;20298;-49
2022/04/02 05:41:46;;;;;;;5.65;5.10;;;0.20;99.90;;;;;;4983041;28;20414;-47
2022/04/02 05:44:13;;;;;;;6.75;5.18;;;0.20;99.90;;;;;;4982640;28;20210;-47
2022/04/02 05:46:42;;;;;;;9.57;5.40;;;0.20;99.90;;;;;;4980209;28;20235;-50
2022/04/02 05:49:13;;;;;;;6.07;5.07;;;0.20;99.90;;;;;;4982400;28;20401;-46
2022/04/02 05:51:40;;;;;;;4.47;4.07;;;0.20;99.90;;;;;;4982306;28;20436;-53
2022/04/02 05:54:08;;;;;;;6.03;4.55;;;0.20;99.90;;;;;;4982452;28;20198;-47
2022/04/02 05:56:48;;;;;;;8.77;4.80;;;0.20;99.90;;;;;;4979500;28;20246;-50
2022/04/02 05:59:24;;;;;;;5.63;3.95;;;0.30;99.90;;;;;;4978774;28;20401;-51
2022/04/02 06:01:53;;;;;;;7.45;4.18;;;0.30;99.90;;;;;;4987170;28;20213;-51
2022/04/02 06:04:21;;;;;;;6.47;4.38;;;0.30;99.90;;;;;;4986156;28;20281;-49
2022/04/02 06:06:48;;;;;;;5.00;4.47;;;0.30;99.90;;;;;;4987522;28;20560;-49
2022/04/02 06:09:15;;;;;;;5.82;5.28;;;0.40;99.90;;;;;;4982086;28;20516;-48
2022/04/02 06:11:42;;;;;;;6.85;5.30;;;0.50;99.90;;;;;;4982448;28;20226;-49
2022/04/02 06:14:10;;;;;;;8.43;4.22;;;0.60;99.90;;;;;;4982555;28;20374;-52
2022/04/02 06:16:43;;;;;;;5.82;4.47;;;0.60;99.90;;;;;;4982160;28;20250;-52
2022/04/02 06:19:12;;;;;;;7.60;4.38;;;0.50;99.90;;;;;;4982076;28;20295;-50
2022/04/02 06:21:39;;;;;;;6.72;4.05;;;0.60;99.90;;;;;;4973083;28;20206;-52
2022/04/02 06:24:06;;;;;;;12.73;4.90;;;0.70;99.90;;;;;;4969559;28;20498;-50
2022/04/02 06:26:34;;;;;;;4.25;3.70;;;0.60;99.90;;;;;;4966158;28;20897;-50
2022/04/02 06:29:02;;;;;;;6.25;4.55;;;0.70;99.90;;;;;;4972912;28;20488;-49
2022/04/02 06:31:31;;;;;;;6.95;4.95;;;0.70;99.90;;;;;;4967737;28;20489;-49
2022/04/02 06:33:59;;;;;;;7.32;3.83;;;0.70;99.90;;;;;;4977191;28;20256;-50
2022/04/02 06:36:27;;;;;;;6.75;4.00;;;0.80;99.90;;;;;;4980338;28;20202;-53
2022/04/02 06:38:57;;;;;;;3.78;3.42;;;0.90;99.90;;;;;;4981217;28;20249;-52
2022/04/02 06:41:24;;;;;;;6.10;3.65;;;1.10;99.90;;;;;;4981545;28;20398;-48
2022/04/02 06:43:51;;;;;;;7.78;5.53;;;1.20;99.90;;;;;;4981500;28;20241;-50
2022/04/02 06:46:20;;;;;;;4.93;4.43;;;1.30;99.90;;;;;;4981507;28;20206;-50
2022/04/02 06:48:53;;;;;;;5.25;3.65;;;1.30;99.90;;;;;;4980580;28;20230;-49
2022/04/02 06:51:21;;;;;;;7.97;4.47;;;1.30;99.90;;;;;;4981421;28;20420;-50
2022/04/02 06:53:48;;;;;;;6.63;4.28;;;1.30;99.90;;;;;;4976304;28;20246;-50
2022/04/02 06:56:16;;;;;;;3.92;3.13;;;1.40;99.90;;;;;;4974135;28;20317;-50
2022/04/02 06:58:43;;;;;;;4.03;3.65;;;1.30;99.90;;;;;;4966330;28;20199;-50
2022/04/02 07:01:10;;;;;;;7.85;4.20;;;1.20;99.90;;;;;;4972603;28;20226;-49
2022/04/02 07:03:37;;;;;;;3.50;3.20;;;1.30;99.90;;;;;;4973126;28;20206;-50
2022/04/02 07:06:05;;;;;;;5.10;3.53;;;1.30;99.90;;;;;;4974365;28;20438;-48
2022/04/02 07:08:36;;;;;;;9.82;3.42;;;1.40;99.90;;;;;;4973499;28;20484;-52
2022/04/02 07:11:04;;;;;;;7.55;3.75;;;1.50;99.90;;;;;;4974134;28;20234;-56
2022/04/02 07:13:36;;;;;;;3.58;3.15;;;1.50;99.90;;;;;;4973235;28;20545;-51
2022/04/02 07:16:04;;;;;;;6.53;2.90;;;1.50;99.90;;;;;;4975943;28;20266;-48
2022/04/02 07:18:35;;;;;;;6.85;4.15;;;1.60;99.90;;;;;;4981046;28;20222;-51
2022/04/02 07:21:05;;;;;;;4.20;2.90;;;1.70;99.90;;;;;;4970575;28;20210;-48
2022/04/02 07:23:34;;;;;;;6.30;3.83;;;1.80;99.90;;;;;;4975746;28;20278;-49
2022/04/02 07:26:05;;;;;;;9.65;4.43;;;1.90;99.90;;;;;;4970180;28;20234;-49
2022/04/02 07:28:36;;;;;;;5.68;3.85;;;2.10;99.90;;;;;;4966956;28;20510;-52
2022/04/02 07:31:04;;;;;;;3.97;3.58;;;2.20;99.90;;;;;;4969684;28;20281;-49
2022/04/02 07:33:39;;;;;;;4.35;2.78;;;2.30;99.90;;;;;;4970398;28;20206;-47
2022/04/02 07:36:36;;;;;;;4.40;2.75;;;2.30;99.90;;;;;;4974906;28;20212;-50
2022/04/02 07:39:11;;;;;;;4.70;3.15;;;2.30;99.90;;;;;;4972297;28;20437;-53
2022/04/02 07:41:56;;;;;;;8.82;4.47;;;2.40;99.90;;;;;;4980531;28;20216;-51
2022/04/02 07:44:46;;;;;;;2.63;2.42;;;2.60;99.90;;;;;;4978228;28;20399;-50
2022/04/02 07:47:17;;;;;;;4.97;3.45;;;2.60;99.90;;;;;;4980642;28;20246;-51
2022/04/02 07:49:46;;;;;;;3.20;2.30;;;2.60;99.90;;;;;;4980465;28;20200;-48
2022/04/02 07:52:14;;;;;;;3.75;2.75;;;2.70;99.90;;;;;;4980635;28;20227;-51
2022/04/02 07:54:43;;;;;;;2.35;2.00;;;2.80;99.90;;;;;;4980248;28;20271;-50
2022/04/02 07:57:14;;;;;;;3.22;2.92;;;3.20;99.90;;;;;;4980143;28;20220;-49
2022/04/02 07:59:43;;;;;;;4.22;3.38;;;3.30;99.90;;;;;;4980702;28;20487;-48
2022/04/02 08:05:07;;;;;;;3.83;2.72;;;3.00;99.90;;;;;;4980079;28;20266;-51
2022/04/02 08:07:36;;;;;;;2.97;2.40;;;3.20;99.90;;;;;;4977976;28;20236;-50
2022/04/02 08:10:07;;;;;;;6.50;3.22;;;3.20;99.90;;;;;;4983333;28;20208;-49
2022/04/02 08:12:35;;;;;;;3.80;3.38;;;3.40;99.90;;;;;;4979350;28;20231;-48
2022/04/02 08:15:07;;;;;;;8.55;3.35;;;3.50;99.90;;;;;;4980031;28;20195;-50
2022/04/02 08:17:39;;;;;;;2.40;2.20;;;3.90;99.90;;;;;;4980166;28;20221;-51
2022/04/02 08:20:11;;;;;;;3.67;2.60;;;4.00;99.90;;;;;;4979715;28;20239;-50
2022/04/02 08:22:38;;;;;;;2.72;2.45;;;4.20;99.90;;;;;;4980388;28;20272;-49
2022/04/02 08:25:06;;;;;;;4.78;3.15;;;4.60;99.90;;;;;;4980218;28;20211;-48
2022/04/02 08:27:35;;;;;;;3.08;2.88;;;5.10;99.90;;;;;;4975242;28;20229;-49
2022/04/02 08:30:06;;;;;;;3.67;2.40;;;5.10;99.90;;;;;;4977906;28;20245;-49
2022/04/02 08:33:03;;;;;;;3.28;2.30;;;4.70;99.90;;;;;;4978417;28;20293;-49
2022/04/02 08:36:12;;;;;;;3.25;2.35;;;3.90;99.90;;;;;;4981343;28;20212;-53
2022/04/02 08:39:05;;;;;;;6.65;3.33;;;4.10;99.90;;;;;;4977849;28;20216;-48
2022/04/02 08:41:54;;;;;;;2.40;2.20;;;4.50;99.90;;;;;;4977854;28;20209;-47
2022/04/02 08:44:36;;;;;;;2.97;2.65;;;4.40;99.90;;;;;;4980552;28;20264;-51
2022/04/02 08:47:23;;;;;;;3.03;2.63;;;4.30;99.90;;;;;;4983083;28;20233;-52
2022/04/02 08:50:17;;;;;;;4.88;3.00;;;4.30;99.90;;;;;;4980169;28;20460;-52
2022/04/02 08:52:53;;;;;;;3.97;2.70;;;4.70;99.90;;;;;;4968140;28;20313;-51
2022/04/02 08:55:34;;;;;;;2.35;2.15;;;4.70;99.90;;;;;;4976786;28;20205;-49
2022/04/02 08:58:07;;;;;;;2.72;2.15;;;4.50;99.90;;;;;;4980033;28;20226;-51
2022/04/02 09:01:08;;;;;;;3.72;2.30;;;4.50;99.90;;;;;;4980178;28;20205;-52
2022/04/02 09:03:51;;;;;;;2.88;2.55;;;5.00;99.90;;;;;;4970521;28;20235;-48
2022/04/02 09:06:46;;;;;;;4.40;2.47;;;4.90;99.90;;;;;;4985271;28;20237;-50
2022/04/02 09:09:36;;;;;;;3.90;2.47;;;5.00;99.90;;;;;;4983452;28;20209;-48
2022/04/02 09:12:25;;;;;;;3.05;2.20;;;5.40;99.90;;;;;;4982293;28;20303;-51
2022/04/02 09:15:06;;;;;;;4.57;2.78;;;5.40;99.90;;;;;;4982326;28;20499;-51
2022/04/02 09:17:50;;;;;;;5.05;3.05;;;5.30;99.90;;;;;;4982041;28;20241;-51
2022/04/02 09:20:26;;;;;;;2.17;1.98;;;5.10;99.90;;;;;;4982401;28;20208;-48
2022/04/02 09:23:02;;;;;;;6.72;3.30;;;4.70;99.90;;;;;;4982254;28;20211;-48
2022/04/02 09:26:08;;;;;;;2.80;2.55;;;4.90;99.90;;;;;;4981315;28;20204;-47
2022/04/02 09:28:47;;;;;;;4.13;2.75;;;5.00;99.90;;;;;;4981241;28;20412;-51
2022/04/02 09:31:30;;;;;;;3.15;2.35;;;5.20;99.90;;;;;;4981606;28;20205;-51
2022/04/02 09:34:39;;;;;;;3.15;2.85;;;5.60;99.90;;;;;;4979913;28;20214;-52
2022/04/02 09:37:28;;;;;;;2.60;2.40;;;5.90;99.90;;;;;;4981204;28;20226;-49
2022/04/02 09:40:09;;;;;;;4.65;3.35;;;6.40;99.90;;;;;;4978722;28;20198;-48
2022/04/02 09:42:43;;;;;;;3.00;2.78;;;6.30;99.90;;;;;;4981154;28;20214;-48
2022/04/02 09:45:13;;;;;;;4.40;2.90;;;6.00;99.90;;;;;;4979002;28;20618;-47
2022/04/02 09:48:00;;;;;;;9.98;2.53;;;5.90;99.90;;;;;;4983027;28;20569;-53
2022/04/02 09:50:29;;;;;;;7.93;2.65;;;5.70;99.90;;;;;;4979407;28;20202;-48
2022/04/02 09:53:01;;;;;;;5.20;3.42;;;5.70;99.90;;;;;;4976522;28;20234;-50
2022/04/02 09:55:39;;;;;;;3.90;2.55;;;5.70;99.90;;;;;;4989121;28;20552;-48
2022/04/02 09:58:45;;;;;;;3.40;2.95;;;6.00;99.90;;;;;;4984407;28;20300;-51
2022/04/02 10:01:36;;;;;;;5.10;3.50;;;5.70;99.90;;;;;;4987441;28;20489;-48
2022/04/02 10:04:22;;;;;;;4.68;3.92;;;5.50;99.90;;;;;;4975864;28;20314;-51
2022/04/02 10:06:58;;;;;;;5.40;3.63;;;5.80;99.90;;;;;;4937896;28;1140347;-48
2022/04/02 10:09:33;;;;;;;3.30;3.00;;;5.60;99.90;;;;;;4982310;28;20202;-53
2022/04/02 10:12:02;;;;;;;4.30;3.30;;;5.20;99.90;;;;;;4974894;28;20301;-48
2022/04/02 10:14:30;;;;;;;4.95;2.75;;;5.40;99.90;;;;;;4970758;28;20198;-46
2022/04/02 10:17:06;;;;;;;3.05;2.85;;;5.00;99.90;;;;;;4980335;28;20229;-50
2022/04/02 10:19:46;;;;;;;4.03;3.35;;;4.80;99.90;;;;;;4985174;28;20201;-49
2022/04/02 10:22:18;;;;;;;7.72;4.32;;;4.80;99.90;;;;;;4986930;28;20201;-48
2022/04/02 10:24:54;;;;;;;6.18;3.60;;;5.10;99.90;;;;;;4986097;28;20206;-55
2022/04/02 10:27:37;;;;;;;4.55;4.13;;;5.40;99.90;;;;;;4981255;28;20225;-49
2022/04/02 10:30:09;;;;;;;5.75;4.43;;;5.50;99.90;;;;;;4982573;28;20233;-50
2022/04/02 10:36:10;;;;;;;6.03;3.15;;;5.60;99.90;;;;;;4996738;28;20223;-52
2022/04/02 10:38:39;;;;;;;3.75;3.15;;;5.90;99.90;;;;;;4993773;28;20210;-51
2022/04/02 10:41:13;;;;;;;6.00;4.63;;;6.00;99.90;;;;;;4980785;28;20207;-49
2022/04/02 10:44:08;;;;;;;6.15;3.70;;;6.00;99.90;;;;;;4962526;28;20203;-52
2022/04/02 10:46:40;;;;;;;2.50;2.30;;;6.20;99.90;;;;;;4945007;28;20225;-50
2022/04/02 10:49:16;;;;;;;4.53;3.20;;;6.00;99.90;;;;;;4962595;28;20207;-48
2022/04/02 10:51:49;;;;;;;7.05;3.75;;;5.80;99.90;;;;;;4962942;28;20413;-48
2022/04/02 10:54:22;;;;;;;4.25;3.42;;;5.70;99.90;;;;;;4962749;29;20206;-52
2022/04/02 10:56:50;;;;;;;6.43;4.00;;;5.80;99.90;;;;;;4962510;28;20225;-50
2022/04/02 10:59:19;;;;;;;9.13;4.22;;;5.90;99.90;;;;;;4962850;29;20343;-49
2022/04/02 11:01:49;;;;;;;3.75;3.20;;;6.00;99.90;;;;;;4964807;28;20447;-52
2022/04/02 11:04:47;;;;;;;3.75;3.17;;;6.10;99.90;;;;;;4969669;28;20206;-51
2022/04/02 11:07:27;;;;;;;5.43;3.13;;;6.10;99.90;;;;;;4974297;28;20226;-49
2022/04/02 11:09:59;;;;;;;4.95;3.95;;;6.40;99.90;;;;;;4965078;28;20202;-47
2022/04/02 11:12:33;;;;;;;4.43;4.03;;;6.60;99.90;;;;;;4981685;28;20218;-48
2022/04/02 11:15:19;;;;;;;6.32;3.22;;;6.70;99.90;;;;;;4982103;28;20213;-52
2022/04/02 11:17:53;;;;;;;4.40;3.65;;;6.60;99.90;;;;;;4979318;28;20268;-46
2022/04/02 11:20:21;;;;;;;7.93;4.07;;;6.50;99.90;;;;;;4980166;28;20295;-49
2022/04/02 11:22:51;;;;;;;6.70;3.55;;;6.60;99.90;;;;;;4974277;28;20502;-49
2022/04/02 11:25:29;;;;;;;4.22;3.78;;;6.80;99.90;;;;;;4973702;28;20237;-47
2022/04/02 11:28:22;;;;;;;3.70;3.22;;;6.90;99.90;;;;;;4975577;28;20312;-50
2022/04/02 11:31:05;;;;;;;4.38;3.63;;;6.90;99.90;;;;;;4976469;28;20206;-52
2022/04/02 11:33:33;;;;;;;5.78;3.55;;;6.90;99.90;;;;;;4978338;28;20342;-52
2022/04/02 11:36:06;;;;;;;8.23;5.40;;;6.90;99.90;;;;;;4979952;28;20245;-51
2022/04/02 11:38:51;;;;;;;9.90;3.60;;;6.80;99.90;;;;;;4979601;28;20224;-51
2022/04/02 11:41:33;;;;;;;5.32;2.63;;;7.00;99.90;;;;;;4980512;28;20269;-49
2022/04/02 11:44:13;;;;;;;7.10;2.97;;;7.10;99.90;;;;;;4980499;28;20256;-50
2022/04/02 11:46:58;;;;;;;3.60;3.00;;;7.20;99.90;;;;;;4979627;28;20228;-49
2022/04/02 11:49:32;;;;;;;3.97;3.08;;;7.30;99.90;;;;;;4980615;28;20198;-49
2022/04/02 11:52:02;;;;;;;6.70;3.78;;;7.20;99.90;;;;;;4979805;28;20205;-48
2022/04/02 11:54:59;;;;;;;17.63;3.97;;;7.40;99.90;;;;;;4981801;28;20217;-50
2022/04/02 11:57:26;;;;;;;6.55;3.92;;;7.50;99.90;;;;;;4974011;28;20218;-46
2022/04/02 12:00:05;;;;;;;5.63;3.08;;;7.40;99.90;;;;;;4980673;28;20493;-49
2022/04/02 12:02:37;;;;;;;5.70;3.60;;;7.70;99.90;;;;;;4981072;28;20446;-48
2022/04/02 12:05:08;;;;;;;9.68;2.83;;;7.70;99.90;;;;;;4980147;28;20268;-52
2022/04/02 12:07:53;;;;;;;3.65;3.15;;;7.70;99.90;;;;;;4980419;28;20432;-47
2022/04/02 12:10:45;;;;;;;9.18;3.83;;;8.10;99.90;;;;;;4973880;28;20379;-52
2022/04/02 12:13:12;;;;;;;4.82;3.17;;;8.00;99.90;;;;;;4974827;28;20324;-49
2022/04/02 12:15:49;;;;;;;6.03;3.47;;;8.10;99.90;;;;;;4975113;28;20552;-50
2022/04/02 12:18:17;;;;;;;7.25;3.03;;;7.90;99.90;;;;;;4970064;28;20217;-52
2022/04/02 12:20:45;;;;;;;2.80;2.53;;;7.60;99.90;;;;;;4979119;28;20209;-51
2022/04/02 12:23:17;;;;;;;2.17;1.98;;;7.70;99.90;;;;;;4977702;28;20244;-50
2022/04/02 12:25:55;;;;;;;3.50;2.50;;;8.00;99.40;;;;;;4978196;28;20218;-50
2022/04/02 12:28:22;;;;;;;6.22;3.95;;;8.10;99.60;;;;;;4976984;28;20221;-54
2022/04/02 12:30:51;;;;;;;5.30;3.55;;;8.20;98.60;;;;;;4975773;28;20211;-51
2022/04/02 12:33:25;;;;;;;14.45;3.90;;;7.90;98.40;;;;;;4975471;28;20228;-48
2022/04/02 12:35:57;;;;;;;14.30;3.78;;;7.70;97.80;;;;;;4975767;28;20206;-51
2022/04/02 12:38:33;;;;;;;7.22;2.80;;;7.70;98.50;;;;;;4976984;28;20214;-53
2022/04/02 12:41:19;;;;;;;9.07;3.80;;;7.80;97.80;;;;;;4978831;28;20209;-51
2022/04/02 12:43:48;;;;;;;3.40;2.75;;;7.90;96.80;;;;;;4983759;28;20349;-52
2022/04/02 12:46:24;;;;;;;17.60;5.53;;;7.70;97.60;;;;;;4965613;28;20210;-49
2022/04/02 12:48:53;;;;;;;5.15;2.72;;;7.60;96.70;;;;;;4964869;29;20202;-49
2022/04/02 12:51:23;;;;;;;3.90;2.22;;;7.70;96.80;;;;;;4964778;28;20497;-50
2022/04/02 12:54:01;;;;;;;7.47;3.13;;;7.70;95.80;;;;;;4964618;28;20320;-49
2022/04/02 12:56:34;;;;;;;2.20;2.08;;;7.60;95.60;;;;;;4968000;28;20194;-51
2022/04/02 12:59:19;;;;;;;12.63;3.30;;;7.90;94.70;;;;;;4978981;28;20206;-49
2022/04/02 13:01:47;;;;;;;5.53;2.92;;;7.80;95.60;;;;;;4984895;28;20218;-51
2022/04/02 13:04:25;;;;;;;3.80;3.28;;;8.10;94.50;;;;;;4984582;28;20544;-50
2022/04/02 13:06:57;;;;;;;4.75;2.83;;;8.20;94.60;;;;;;4975928;28;20485;-50
2022/04/02 13:09:39;;;;;;;6.97;3.25;;;8.20;93.70;;;;;;4969686;28;20408;-51
2022/04/02 13:12:18;;;;;;;4.20;2.13;;;7.90;91.80;;;;;;4985133;28;20202;-49
2022/04/02 13:14:52;;;;;;;3.17;2.30;;;7.90;91.30;;;;;;4986380;28;20207;-50
2022/04/02 13:17:19;;;;;;;8.32;2.85;;;8.00;90.60;;;;;;4982000;28;20225;-51
2022/04/02 13:22:40;;;;;;;3.83;2.65;;;8.40;88.60;;;;;;4980774;28;20225;-50
2022/04/02 13:25:22;;;;;;;9.43;4.80;;;8.50;87.80;;;;;;4979993;28;20206;-48
2022/04/02 13:28:32;;;;;;;6.57;2.90;;;8.50;88.90;;;;;;4976972;28;20344;-51
2022/04/02 13:31:00;;;;;;;3.45;2.63;;;8.60;84.20;;;;;;4984885;28;20222;-53
2022/04/02 13:33:58;;;;;;;3.85;2.28;;;8.60;83.10;;;;;;4983959;28;20556;-53
2022/04/02 13:37:03;;;;;;;5.90;2.70;;;8.60;82.50;;;;;;4979267;28;20229;-51
2022/04/02 13:39:38;;;;;;;5.22;3.00;;;8.60;83.50;;;;;;4979457;28;20225;-49